»·PEaware :: N1873K KSAN-KDLO

N1873K :: KSAN-KDLO

FLIGHT INFORMATION

Flight Status: Arrived
Operator: Privately registered:
United States
More flights under this callsign
Pilot: Mitchell F. (26966)
Aircraft: Unknown
(B60)
More flights by this aircraft type
Origin: KSAN San Diego Intl-Lindbergh
United States
Destination: KDLO Delano Mun
United States
More flights between these airports :: More routes between these airports
Route: +LAX170 LAX LHS LEBEC
File this flight plan on PilotEdge
Remarks: Apologies if you were around earlier. Had hardware issues and then a blue screen. Trying again.
Altitude:
(Current/Filed)
16,000ft
Speed:
(Current/Filed)
225kts
Departed: 18-Jul-20 02:42 PM
Arrived: 18-Jul-20 03:48 PM
Distance/Time
Traveled:
207nm/1:06
Distance/Time
To Go:
Arrived

Flight Plot

Page will automatically refresh every two minutes.


Map Options




Map Legend


Flown Route
Filed Route
Departure Airport
Arrival Airport
Navaid (VOR, NDB)
Fix

Horizontal Profiles

Position Reports

Time Latitude Longitude Heading Altitude Ground
Speed
18-Jul-20 14:22 32.737922 -117.184665 5 18ft 0kts
18-Jul-20 14:23 32.737705 -117.184842 63 18ft 0kts
18-Jul-20 14:24 32.737715 -117.184818 64 18ft 2kts
18-Jul-20 14:25 32.737732 -117.184769 75 18ft 0kts
18-Jul-20 14:26 32.737733 -117.184767 75 18ft 0kts
18-Jul-20 14:27 32.737733 -117.184764 75 18ft 0kts
18-Jul-20 14:28 32.737733 -117.184762 75 18ft 0kts
18-Jul-20 14:29 32.737734 -117.184761 75 18ft 0kts
18-Jul-20 14:30 32.737734 -117.184761 75 18ft 0kts
18-Jul-20 14:31 32.737734 -117.184761 75 18ft 0kts
18-Jul-20 14:32 32.737734 -117.184761 75 18ft 0kts
18-Jul-20 14:33 32.737734 -117.184761 75 18ft 0kts
18-Jul-20 14:35 32.737033 -117.184794 188 18ft 4kts
18-Jul-20 14:36 32.736361 -117.184879 175 18ft 0kts
18-Jul-20 14:37 32.734379 -117.183758 149 18ft 24kts
18-Jul-20 14:38 32.731407 -117.176593 106 18ft 24kts
18-Jul-20 14:39 32.730789 -117.175087 202 18ft 0kts
18-Jul-20 14:40 32.730581 -117.175181 197 18ft 9kts
18-Jul-20 14:41 32.730468 -117.176798 291 18ft 3kts
18-Jul-20 14:42 32.736081 -117.201503 284 361ft 119kts
18-Jul-20 14:43 32.753918 -117.237010 300 1563ft 133kts
18-Jul-20 14:44 32.776023 -117.276959 308 3027ft 156kts
18-Jul-20 14:45 32.803255 -117.315976 304 4198ft 149kts
18-Jul-20 14:46 32.828011 -117.355571 303 5282ft 149kts
18-Jul-20 14:47 32.853473 -117.395488 303 6384ft 153kts
18-Jul-20 14:48 32.879635 -117.436174 304 7419ft 157kts
18-Jul-20 14:49 32.913911 -117.468739 327 8430ft 164kts
18-Jul-20 14:49 32.947716 -117.491701 327 9270ft 171kts
18-Jul-20 14:51 32.987346 -117.537947 300 10449ft 177kts
18-Jul-20 14:52 33.017983 -117.585747 304 11453ft 185kts
18-Jul-20 14:52 33.045089 -117.626502 304 12292ft 191kts
18-Jul-20 14:54 33.083808 -117.685766 304 13464ft 196kts
18-Jul-20 14:54 33.112040 -117.729056 305 14242ft 202kts
18-Jul-20 14:56 33.153694 -117.792964 305 14953ft 212kts
18-Jul-20 14:56 33.184230 -117.839748 306 15456ft 215kts
18-Jul-20 14:57 33.233534 -117.878499 342 15978ft 221kts
18-Jul-20 14:58 33.295080 -117.900680 346 15993ft 239kts
18-Jul-20 14:59 33.360908 -117.919213 349 15988ft 245kts
18-Jul-20 15:00 33.412454 -117.965036 294 15997ft 247kts
18-Jul-20 15:01 33.440859 -118.040509 292 15996ft 248kts
18-Jul-20 15:02 33.468877 -118.116361 292 16003ft 249kts
18-Jul-20 15:03 33.496848 -118.192026 292 16012ft 249kts
18-Jul-20 15:04 33.524920 -118.267944 292 16014ft 249kts
18-Jul-20 15:05 33.553103 -118.344044 292 16019ft 249kts
18-Jul-20 15:06 33.581385 -118.420311 292 16017ft 250kts
18-Jul-20 15:07 33.633193 -118.471694 350 16012ft 248kts
18-Jul-20 15:08 33.700286 -118.460801 9 16001ft 246kts
18-Jul-20 15:09 33.768533 -118.452943 9 15994ft 245kts
18-Jul-20 15:10 33.836638 -118.444231 8 15995ft 245kts
18-Jul-20 15:11 33.904723 -118.435601 8 15998ft 246kts
18-Jul-20 15:12 33.972371 -118.442850 345 16007ft 249kts
18-Jul-20 15:13 34.040244 -118.459407 351 16009ft 248kts
18-Jul-20 15:14 34.108588 -118.468947 356 15999ft 248kts
18-Jul-20 15:15 34.177367 -118.478635 353 15992ft 248kts
18-Jul-20 15:16 34.244562 -118.490350 352 15960ft 233kts
18-Jul-20 15:17 34.306616 -118.502028 351 15964ft 221kts
18-Jul-20 15:18 34.366573 -118.513794 352 15984ft 215kts
18-Jul-20 15:19 34.425475 -118.525024 352 16037ft 213kts
18-Jul-20 15:20 34.486064 -118.536148 352 16042ft 223kts
18-Jul-20 15:21 34.548918 -118.547704 352 16058ft 228kts
18-Jul-20 15:22 34.609398 -118.559572 351 16091ft 210kts
18-Jul-20 15:23 34.666703 -118.572069 344 16111ft 208kts
18-Jul-20 15:24 34.718348 -118.608170 324 15888ft 223kts
18-Jul-20 15:25 34.770686 -118.652043 324 15394ft 229kts
18-Jul-20 15:26 34.824891 -118.693622 327 14894ft 229kts
18-Jul-20 15:27 34.879725 -118.734235 327 14391ft 225kts
18-Jul-20 15:28 34.931354 -118.772119 327 13878ft 210kts
18-Jul-20 15:29 34.982710 -118.809517 327 13384ft 216kts
18-Jul-20 15:30 35.034429 -118.845951 335 12724ft 214kts
18-Jul-20 15:31 35.087411 -118.875012 333 11926ft 203kts
18-Jul-20 15:32 35.139454 -118.904175 334 10853ft 210kts
18-Jul-20 15:33 35.190680 -118.933249 334 9748ft 197kts
18-Jul-20 15:34 35.241007 -118.962306 334 8673ft 204kts
18-Jul-20 15:35 35.290946 -118.991530 334 7568ft 194kts
18-Jul-20 15:36 35.340843 -119.021018 334 6478ft 200kts
18-Jul-20 15:37 35.392921 -119.047934 338 5113ft 200kts
18-Jul-20 15:38 35.440377 -119.071420 338 4696ft 160kts
18-Jul-20 15:39 35.478541 -119.090295 337 4703ft 141kts
18-Jul-20 15:40 35.514877 -119.108185 338 4724ft 142kts
18-Jul-20 15:41 35.552677 -119.126884 338 4600ft 159kts
18-Jul-20 15:42 35.596705 -119.148721 338 3905ft 179kts
18-Jul-20 15:43 35.636387 -119.179949 324 2917ft 170kts
18-Jul-20 15:44 35.672708 -119.201113 345 2284ft 126kts
18-Jul-20 15:45 35.704460 -119.216710 341 952ft 112kts
18-Jul-20 15:46 35.734235 -119.231114 336 371ft 107kts
18-Jul-20 15:47 35.744744 -119.237318 252 317ft 15kts
18-Jul-20 15:48 35.744420 -119.238442 96 317ft 0kts
18-Jul-20 15:49 35.744420 -119.238442 96 317ft 0kts
18-Jul-20 15:50 35.744420 -119.238442 96 317ft 0kts
18-Jul-20 15:51 35.744420 -119.238442 96 317ft 0kts
18-Jul-20 15:52 35.744420 -119.238442 96 317ft 0kts
18-Jul-20 15:53 35.744420 -119.238442 96 317ft 0kts
18-Jul-20 15:54 35.744420 -119.238442 96 317ft 0kts
18-Jul-20 15:55 35.744420 -119.238442 96 317ft 0kts
18-Jul-20 15:56 35.744420 -119.238442 96 317ft 0kts
18-Jul-20 15:57 35.744420 -119.238442 96 317ft 0kts
18-Jul-20 15:58 35.744420 -119.238442 96 317ft 0kts
18-Jul-20 15:59 35.744420 -119.238442 96 317ft 0kts
18-Jul-20 16:00 35.744420 -119.238442 96 317ft 0kts
18-Jul-20 16:01 35.744420 -119.238442 96 317ft 0kts
18-Jul-20 16:02 35.744420 -119.238442 96 317ft 0kts

Navigation Log

Ident Type
Flight plan parsing failed, navigation log unavailable